Time;durP1;ratioP1;P1;durP2;ratioP2;P2;SDS_P1;SDS_P2;PMS_P1;PMS_P2;Temp;Humidity;BMP_temperature;BMP_pressure;BME280_temperature;BME280_humidity;BME280_pressure;Samples;Min_cycle;Max_cycle;Signal;HPM_P1;HPM_P2
2023/01/04 00:01:11;;;;;;;;;64.00;54.00;;;;;17.94;71.89;96215.53;5081334;28;8863;-70
2023/01/04 00:03:38;;;;;;;;;68.00;56.00;;;;;17.93;71.30;96206.47;5081147;28;12444;-70
2023/01/04 00:06:07;;;;;;;;;69.75;58.25;;;;;17.95;71.77;96217.91;5089264;28;8789;-70
2023/01/04 00:08:34;;;;;;;;;69.25;59.25;;;;;17.96;71.78;96219.50;5080463;28;9668;-70
2023/01/04 00:11:03;;;;;;;;;71.25;59.25;;;;;17.96;71.62;96214.00;5079364;28;8929;-70
2023/01/04 00:13:30;;;;;;;;;65.25;55.25;;;;;17.97;71.61;96210.06;5080912;28;9302;-70
2023/01/04 00:16:02;;;;;;;;;65.50;55.00;;;;;17.98;71.69;96210.84;5082952;28;9409;-70
2023/01/04 00:18:35;;;;;;;;;70.67;59.67;;;;;17.98;71.98;96210.84;5078788;28;8856;-70
2023/01/04 00:21:20;;;;;;;;;69.25;58.75;;;;;17.99;71.42;96212.41;5087224;28;8993;-69
2023/01/04 00:23:49;;;;;;;;;71.00;59.25;;;;;17.98;71.76;96214.41;5078079;28;9612;-70
2023/01/04 00:26:18;;;;;;;;;65.25;55.25;;;;;17.98;71.75;96213.59;5081325;28;8848;-70
2023/01/04 00:28:46;;;;;;;;;70.50;59.25;;;;;17.99;71.81;96212.41;5077010;28;8825;-71
2023/01/04 00:31:20;;;;;;;;;63.50;55.00;;;;;17.99;71.37;96213.22;5082886;28;8883;-70
2023/01/04 00:33:48;;;;;;;;;64.25;55.00;;;;;18.00;71.57;96214.00;5078711;28;9159;-70
2023/01/04 00:36:15;;;;;;;;;66.00;57.25;;;;;17.98;71.59;96208.88;5075423;28;8846;-70
2023/01/04 00:38:42;;;;;;;;;69.00;57.25;;;;;17.99;71.68;96204.94;5081899;28;8829;-70
2023/01/04 00:41:11;;;;;;;;;65.00;54.50;;;;;17.99;71.52;96202.19;5082612;28;8934;-70
2023/01/04 00:44:01;;;;;;;;;65.00;55.00;;;;;17.99;71.69;96201.38;5079364;28;8830;-70
2023/01/04 00:46:30;;;;;;;;;68.00;58.00;;;;;17.99;71.74;96204.94;5074150;28;10001;-70
2023/01/04 00:48:58;;;;;;;;;72.00;59.25;;;;;17.98;71.46;96206.13;5080048;28;9107;-70
2023/01/04 00:51:28;;;;;;;;;66.00;56.00;;;;;18.00;71.51;96200.19;5076381;28;8809;-70
2023/01/04 00:53:56;;;;;;;;;75.67;63.67;;;;;17.98;71.81;96206.13;5079996;28;9147;-70
2023/01/04 00:56:23;;;;;;;;;64.75;54.75;;;;;17.98;71.67;96197.84;5079498;28;9994;-69
2023/01/04 00:58:54;;;;;;;;;69.25;57.50;;;;;17.99;71.69;96202.19;5079521;28;9643;-70
2023/01/04 01:01:21;;;;;;;;;70.00;59.25;;;;;17.97;71.52;96201.78;5078199;28;8825;-70
2023/01/04 01:03:58;;;;;;;;;66.00;55.25;;;;;17.98;71.58;96200.59;5065446;28;9727;-70
2023/01/04 01:06:27;;;;;;;;;70.75;60.25;;;;;17.99;71.61;96204.94;5079198;28;8922;-70
2023/01/04 01:08:55;;;;;;;;;77.67;65.33;;;;;17.98;72.04;96205.31;5078167;28;9013;-70
2023/01/04 01:11:22;;;;;;;;;62.25;54.00;;;;;17.99;71.64;96206.88;5078614;28;9371;-69
2023/01/04 01:13:49;;;;;;;;;65.75;55.25;;;;;17.99;71.68;96209.66;5081642;28;9435;-69
2023/01/04 01:16:19;;;;;;;;;65.00;55.75;;;;;17.98;71.38;96208.06;5086807;28;9099;-70
2023/01/04 01:19:06;;;;;;;;;69.25;58.75;;;;;17.97;71.60;96203.72;5073043;28;9386;-70
2023/01/04 01:21:34;;;;;;;;;74.25;63.00;;;;;17.97;71.62;96201.78;5078327;28;8825;-70
2023/01/04 01:24:01;;;;;;;;;72.50;61.00;;;;;17.97;71.53;96203.72;5078316;28;9312;-68
2023/01/04 01:26:28;;;;;;;;;66.25;56.00;;;;;17.97;71.26;96199.03;5079055;28;8862;-69
2023/01/04 01:28:55;;;;;;;;;64.00;55.00;;;;;17.97;71.23;96200.97;5078184;28;9439;-70
2023/01/04 01:31:24;;;;;;;;;63.25;54.00;;;;;17.96;71.87;96202.97;5078640;28;9156;-70
2023/01/04 01:33:53;;;;;;;;;64.50;55.00;;;;;17.97;71.52;96206.50;5077586;28;10379;-70
2023/01/04 01:36:23;;;;;;;;;64.00;56.00;;;;;17.96;71.26;96204.91;5084432;28;8840;-68
2023/01/04 01:38:49;;;;;;;;;68.50;57.75;;;;;17.96;71.33;96208.47;5077271;28;9215;-69
2023/01/04 01:41:25;;;;;;;;;74.00;61.33;;;;;17.96;71.58;96207.66;5078658;28;9341;-69
2023/01/04 01:43:54;;;;;;;;;68.25;57.25;;;;;17.95;71.41;96203.34;5084314;28;9508;-70
2023/01/04 01:46:29;;;;;;;;;67.00;57.25;;;;;17.95;71.04;96208.84;5083506;28;9516;-69
2023/01/04 01:49:04;;;;;;;;;70.25;59.25;;;;;17.94;71.39;96202.53;5080653;28;9616;-70
2023/01/04 01:51:33;;;;;;;;;66.00;56.75;;;;;17.94;71.64;96202.53;5086950;28;8833;-69
2023/01/04 01:54:08;;;;;;;;;75.33;63.67;;;;;17.94;71.48;96201.75;5082620;28;9196;-69
2023/01/04 01:56:38;;;;;;;;;71.25;59.00;;;;;17.94;71.31;96208.03;5085017;28;9425;-69
2023/01/04 01:59:08;;;;;;;;;65.00;56.00;;;;;17.93;71.01;96205.69;5083564;28;10498;-70
2023/01/04 02:01:35;;;;;;;;;63.75;54.00;;;;;17.92;70.81;96196.59;5085158;28;9580;-70
2023/01/04 02:04:04;;;;;;;;;64.25;54.50;;;;;17.93;71.00;96206.47;5082731;28;9849;-70
2023/01/04 02:06:42;;;;;;;;;65.50;55.75;;;;;17.92;71.28;96210.41;5087894;28;8849;-69
2023/01/04 02:09:09;;;;;;;;;69.25;58.75;;;;;17.92;71.86;96207.63;5085761;28;9378;-69
2023/01/04 02:11:35;;;;;;;;;69.25;58.75;;;;;17.93;71.56;96206.47;5086667;28;10724;-69
2023/01/04 02:17:16;;;;;;;;;70.33;59.33;;;;;17.92;71.29;96215.91;5084656;28;9621;-70
2023/01/04 02:20:01;;;;;;;;;68.25;59.00;;;;;17.93;71.22;96206.47;5082902;28;9225;-70
2023/01/04 02:22:54;;;;;;;;;62.25;53.00;;;;;17.91;71.25;96214.38;5079593;28;9278;-69
2023/01/04 02:25:58;;;;;;;;;63.75;55.25;;;;;17.91;71.30;96211.59;5083351;28;9413;-70
2023/01/04 02:28:46;;;;;;;;;68.75;57.25;;;;;17.92;71.22;96212.38;5082875;28;9085;-70
2023/01/04 02:31:28;;;;;;;;;63.75;55.00;;;;;17.90;71.18;96210.03;5088205;28;9291;-70
2023/01/04 02:34:32;;;;;;;;;63.00;54.25;;;;;17.90;71.51;96213.56;5089039;28;9459;-70
2023/01/04 02:37:08;;;;;;;;;68.50;58.25;;;;;17.90;71.70;96219.06;5087478;28;9203;-70
2023/01/04 02:39:37;;;;;;;;;68.75;56.75;;;;;17.90;71.60;96218.31;5089954;28;8856;-70
2023/01/04 02:42:14;;;;;;;;;66.50;58.00;;;;;17.90;71.46;96216.31;5084625;28;9426;-70
2023/01/04 02:44:53;;;;;;;;;71.00;60.00;;;;;17.90;71.50;96216.31;5085899;28;9598;-69
2023/01/04 02:50:29;;;;;;;;;72.00;59.67;;;;;17.90;71.70;96223.81;5082546;28;10311;-69
2023/01/04 02:53:21;;;;;;;;;70.00;59.25;;;;;17.90;71.22;96226.59;5088112;28;9431;-69
2023/01/04 02:56:11;;;;;;;;;71.00;60.00;;;;;17.89;71.29;96231.28;5088744;28;11490;-70
2023/01/04 02:58:53;;;;;;;;;68.75;56.25;;;;;17.89;71.47;96225.78;5084373;28;9444;-70
2023/01/04 03:08:35;;;;;;;;;63.00;54.25;;;;;17.88;71.47;96229.72;5054468;28;9774;-70
2023/01/04 03:12:30;;;;;;;;;69.50;59.00;;;;;17.87;71.34;96222.63;5044077;28;9316;-70
2023/01/04 03:14:14;;;;;;;;;63.25;54.00;;;;;17.87;71.25;96225.38;5044837;28;10802;-70
2023/01/04 03:17:03;;;;;;;;;70.00;59.25;;;;;17.88;71.18;96226.19;5044728;28;9723;-70
2023/01/04 03:19:50;;;;;;;;;62.25;53.75;;;;;17.87;71.39;96225.38;5030596;28;9202;-70
2023/01/04 03:36:34;;;;;;;;;70.25;59.00;;;;;17.85;71.41;96224.19;5043261;28;9732;-70
2023/01/04 03:48:32;;;;;;;;;63.50;53.50;;;;;17.85;71.29;96235.22;5080792;28;9213;-70
2023/01/04 03:51:18;;;;;;;;;68.00;58.75;;;;;17.84;71.61;96233.66;5088175;28;9296;-69
2023/01/04 03:53:53;;;;;;;;;70.33;59.00;;;;;17.84;71.02;96231.69;5085904;28;10874;-69
2023/01/04 03:56:23;;;;;;;;;67.75;58.00;;;;;17.83;71.08;96235.63;5087900;28;9241;-70
2023/01/04 03:58:51;;;;;;;;;70.00;59.25;;;;;17.83;71.08;96240.34;5085188;28;11195;-70
2023/01/04 04:01:20;;;;;;;;;63.25;53.00;;;;;17.82;70.92;96236.81;5081026;28;9740;-70
2023/01/04 04:09:18;;;;;;;;;68.25;59.00;;;;;17.82;70.90;96234.06;5084063;28;9380;-70
2023/01/04 04:11:46;;;;;;;;;61.25;53.00;;;;;17.82;71.00;96225.00;5088862;28;9642;-70
2023/01/04 04:14:13;;;;;;;;;69.25;59.00;;;;;17.80;71.34;96233.66;5086558;28;9380;-70
2023/01/04 04:16:40;;;;;;;;;67.25;57.75;;;;;17.81;71.19;96228.94;5080475;28;11042;-70
2023/01/04 04:19:07;;;;;;;;;63.00;53.25;;;;;17.79;71.13;96232.06;5086506;28;9427;-69
2023/01/04 04:21:35;;;;;;;;;64.75;54.75;;;;;17.79;71.12;96228.53;5086063;28;9631;-70
2023/01/04 04:24:03;;;;;;;;;68.25;58.50;;;;;17.79;71.38;96232.06;5086580;28;10830;-70
2023/01/04 04:26:29;;;;;;;;;65.00;54.50;;;;;17.80;71.22;96227.34;5087002;28;10244;-70
2023/01/04 04:28:56;;;;;;;;;68.75;58.00;;;;;17.78;71.16;96230.50;5084491;28;10621;-69
2023/01/04 04:31:23;;;;;;;;;67.00;57.25;;;;;17.79;71.22;96231.28;5085788;28;10377;-70
2023/01/04 04:33:50;;;;;;;;;61.00;52.25;;;;;17.78;71.65;96221.44;5089501;28;8867;-69
2023/01/04 04:36:17;;;;;;;;;75.33;63.33;;;;;17.77;71.72;96220.66;5080948;28;9376;-69
2023/01/04 04:38:44;;;;;;;;;62.75;53.25;;;;;17.77;71.47;96225.38;5085314;28;9333;-70
2023/01/04 04:43:59;;;;;;;;;68.75;58.00;;;;;17.76;71.80;96216.31;5087603;28;9218;-70
2023/01/04 04:46:27;;;;;;;;;62.75;54.25;;;;;17.77;71.20;96215.16;5084723;28;9525;-70
2023/01/04 04:48:54;;;;;;;;;63.50;55.25;;;;;17.77;71.67;96211.59;5086822;28;8833;-69
2023/01/04 04:51:21;;;;;;;;;73.33;62.33;;;;;17.78;71.45;96218.69;5087979;28;9482;-70
2023/01/04 04:53:48;;;;;;;;;63.00;53.25;;;;;17.76;71.38;96219.06;5083475;28;9466;-69
2023/01/04 04:56:15;;;;;;;;;61.75;53.25;;;;;17.77;71.53;96217.91;5087521;28;8918;-70
2023/01/04 04:58:42;;;;;;;;;61.75;53.25;;;;;17.77;71.40;96215.16;5089863;28;9443;-70
2023/01/04 05:01:09;;;;;;;;;70.25;59.25;;;;;17.76;71.55;96224.59;5094683;28;9633;-69
2023/01/04 05:03:36;;;;;;;;;69.25;59.25;;;;;17.77;71.32;96219.84;5083985;28;9834;-70
2023/01/04 05:06:04;;;;;;;;;63.25;54.00;;;;;17.77;71.51;96225.38;5088428;28;9335;-69
2023/01/04 05:08:31;;;;;;;;;62.75;53.00;;;;;17.76;71.73;96226.53;5088269;28;9229;-70
2023/01/04 05:10:57;;;;;;;;;64.00;53.75;;;;;17.77;71.28;96222.63;5079620;28;11569;-70
2023/01/04 05:13:24;;;;;;;;;62.25;53.00;;;;;17.76;71.14;96223.78;5086384;28;10438;-70
2023/01/04 05:15:53;;;;;;;;;69.00;58.00;;;;;17.75;71.17;96217.50;5081591;28;9790;-70
2023/01/04 05:18:21;;;;;;;;;60.50;52.50;;;;;17.74;71.46;96224.97;5085669;28;9122;-70
2023/01/04 05:20:48;;;;;;;;;69.75;59.00;;;;;17.76;71.36;96223.78;5085954;28;9778;-70
2023/01/04 05:23:18;;;;;;;;;69.50;59.00;;;;;17.74;71.28;96224.19;5087722;28;11240;-69
2023/01/04 05:25:50;;;;;;;;;63.00;54.25;;;;;17.75;71.50;96228.53;5085216;28;10587;-70
2023/01/04 05:28:17;;;;;;;;;61.75;53.00;;;;;17.75;71.68;96234.03;5084338;28;9504;-69
2023/01/04 05:30:49;;;;;;;;;61.25;53.00;;;;;17.74;71.26;96238.75;5086131;28;9672;-69
2023/01/04 05:33:25;;;;;;;;;67.00;56.00;;;;;17.73;71.71;96234.44;5084488;28;11729;-69
2023/01/04 05:35:53;;;;;;;;;61.75;52.25;;;;;17.74;71.32;96240.75;5082692;28;9308;-70
2023/01/04 05:38:21;;;;;;;;;68.50;58.75;;;;;17.73;71.44;96228.13;5084964;28;10447;-70
2023/01/04 05:40:48;;;;;;;;;68.00;58.50;;;;;17.73;71.61;96228.13;5082605;28;9387;-69
2023/01/04 05:43:17;;;;;;;;;63.25;54.00;;;;;17.73;71.38;96239.16;5087513;28;8844;-70
2023/01/04 05:45:47;;;;;;;;;67.00;56.25;;;;;17.72;71.38;96234.81;5087900;28;9801;-69
2023/01/04 05:48:15;;;;;;;;;64.50;55.50;;;;;17.73;71.38;96236.41;5085781;28;9411;-69
2023/01/04 05:50:42;;;;;;;;;73.67;61.33;;;;;17.72;71.25;96248.59;5085436;28;11297;-70
2023/01/04 05:53:09;;;;;;;;;63.00;55.00;;;;;17.71;71.33;96247.84;5083696;28;9573;-70
2023/01/04 05:55:36;;;;;;;;;62.50;54.25;;;;;17.71;71.27;96247.84;5084280;28;9396;-69
2023/01/04 05:58:03;;;;;;;;;63.25;54.50;;;;;17.71;71.59;96241.50;5088027;28;8801;-70
2023/01/04 06:00:30;;;;;;;;;63.50;54.25;;;;;17.71;71.12;96247.84;5080782;28;9614;-69
2023/01/04 06:02:57;;;;;;;;;64.25;56.00;;;;;17.70;70.93;96243.50;5083258;28;10327;-70
2023/01/04 06:05:24;;;;;;;;;68.75;58.50;;;;;17.70;71.12;96251.00;5089493;28;9270;-69
2023/01/04 06:07:52;;;;;;;;;67.25;58.00;;;;;17.69;71.24;96244.66;5086201;28;9561;-70
2023/01/04 06:10:19;;;;;;;;;61.00;53.00;;;;;17.69;71.00;96252.16;5086667;28;8863;-70
2023/01/04 06:12:46;;;;;;;;;61.75;53.75;;;;;17.68;71.18;96254.13;5087936;28;10097;-69
2023/01/04 06:15:14;;;;;;;;;66.00;56.00;;;;;17.69;70.98;96260.44;5088311;28;9421;-70
2023/01/04 06:17:40;;;;;;;;;60.75;52.75;;;;;17.68;71.01;96264.38;5092783;28;11387;-70
2023/01/04 06:20:09;;;;;;;;;63.25;54.75;;;;;17.68;71.14;96267.91;5088887;28;9398;-70
2023/01/04 06:22:37;;;;;;;;;68.75;59.25;;;;;17.67;71.21;96266.31;5104050;28;10713;-69
2023/01/04 06:25:04;;;;;;;;;61.25;53.00;;;;;17.67;70.85;96265.56;5090542;28;8858;-70
2023/01/04 06:27:31;;;;;;;;;70.00;57.25;;;;;17.67;70.96;96273.81;5088310;28;10622;-69
2023/01/04 06:29:58;;;;;;;;;61.00;53.00;;;;;17.66;71.18;96273.03;5086041;28;9347;-70
2023/01/04 06:32:24;;;;;;;;;66.25;57.00;;;;;17.65;71.00;96276.19;5087638;28;11078;-69
2023/01/04 06:34:51;;;;;;;;;69.75;59.00;;;;;17.65;71.40;96281.69;5090478;28;10135;-69
2023/01/04 06:37:18;;;;;;;;;63.25;54.25;;;;;17.65;71.37;96290.78;5089167;28;8834;-70
2023/01/04 06:39:45;;;;;;;;;63.25;54.00;;;;;17.65;71.39;96284.44;5081893;28;9389;-70
2023/01/04 06:44:57;;;;;;;;;59.75;51.75;;;;;17.64;71.41;96280.13;5084341;28;9176;-70
2023/01/04 06:47:24;;;;;;;;;63.00;53.75;;;;;17.64;71.30;96289.19;5087303;28;9513;-70
2023/01/04 06:49:51;;;;;;;;;61.00;53.00;;;;;17.63;71.23;96286.81;5082380;28;9498;-69
2023/01/04 06:52:18;;;;;;;;;64.75;56.25;;;;;17.64;71.36;96289.19;5091943;28;8852;-69
2023/01/04 06:54:45;;;;;;;;;63.25;53.75;;;;;17.63;71.21;96282.09;5085611;28;10705;-70
2023/01/04 06:57:12;;;;;;;;;66.00;56.25;;;;;17.63;71.40;96286.81;5086101;28;9398;-70
2023/01/04 06:59:39;;;;;;;;;61.00;53.00;;;;;17.62;71.38;96286.03;5083007;28;9174;-70
2023/01/04 07:02:06;;;;;;;;;67.00;57.75;;;;;17.63;71.14;96292.31;5084642;28;9472;-70
2023/01/04 07:04:33;;;;;;;;;62.25;54.00;;;;;17.61;71.69;96292.72;5086737;28;8837;-70
2023/01/04 07:07:00;;;;;;;;;67.25;57.75;;;;;17.62;71.38;96293.50;5087953;28;9976;-70
2023/01/04 07:09:27;;;;;;;;;62.00;54.00;;;;;17.62;71.47;96297.06;5088106;28;9273;-69
2023/01/04 07:11:54;;;;;;;;;63.00;53.00;;;;;17.62;70.93;96291.53;5091159;28;8880;-69
2023/01/04 07:14:21;;;;;;;;;63.25;54.00;;;;;17.63;71.21;96297.84;5082409;28;9292;-69
2023/01/04 07:16:48;;;;;;;;;67.25;58.25;;;;;17.62;70.87;96305.31;5083401;28;10517;-70
2023/01/04 07:19:15;;;;;;;;;72.25;60.25;;;;;17.42;63.08;96300.13;5089240;28;8821;-71
2023/01/04 07:21:42;;;;;;;;;70.75;59.75;;;;;16.85;59.76;96303.38;5086298;28;9554;-70
2023/01/04 07:24:09;;;;;;;;;69.25;59.25;;;;;16.07;55.82;96316.16;5086259;28;11712;-71
2023/01/04 07:26:35;;;;;;;;;75.00;62.50;;;;;15.56;57.78;96317.59;5101850;27;9402;-70
2023/01/04 07:29:15;;;;;;;;;66.00;56.75;;;;;14.93;57.17;96319.16;5082593;28;9710;-70
2023/01/04 07:31:48;;;;;;;;;72.67;61.00;;;;;14.37;58.28;96319.47;5083829;28;8814;-70
2023/01/04 07:34:16;;;;;;;;;67.50;57.00;;;;;13.95;57.94;96323.88;5088301;28;9023;-70
2023/01/04 07:36:45;;;;;;;;;66.00;56.25;;;;;13.73;59.42;96324.66;5082489;28;8849;-71
2023/01/04 07:39:12;;;;;;;;;72.67;61.00;;;;;13.46;59.56;96327.28;5086529;28;8825;-69
2023/01/04 07:41:40;;;;;;;;;65.75;56.00;;;;;13.18;58.17;96333.72;5087998;28;9526;-70
2023/01/04 07:44:08;;;;;;;;;66.50;56.75;;;;;12.95;58.51;96328.94;5082070;28;8851;-70
2023/01/04 07:46:36;;;;;;;;;71.33;60.67;;;;;12.77;59.30;96339.47;5079551;28;8832;-69
2023/01/04 07:49:03;;;;;;;;;72.50;61.00;;;;;12.60;60.27;96340.69;5081888;28;9511;-70
2023/01/04 07:51:31;;;;;;;;;73.25;61.00;;;;;12.41;60.12;96335.94;5088342;28;9469;-70
2023/01/04 07:53:59;;;;;;;;;73.75;61.25;;;;;12.46;63.84;96335.66;5076899;28;9364;-68
2023/01/04 07:56:25;;;;;;;;;70.00;60.00;;;;;12.70;64.59;96337.41;5091726;28;9357;-69
2023/01/04 07:58:57;;;;;;;;;70.67;60.00;;;;;12.97;67.37;96339.53;5096290;28;9360;-68
2023/01/04 08:01:25;;;;;;;;;69.33;58.33;;;;;13.26;68.38;96343.66;5087680;28;9272;-68
2023/01/04 08:03:53;;;;;;;;;69.33;59.33;;;;;13.46;69.02;96346.44;5090676;28;9247;-65
2023/01/04 08:06:20;;;;;;;;;68.25;58.25;;;;;13.77;69.47;96342.75;5081161;28;10016;-67
2023/01/04 08:08:48;;;;;;;;;69.25;58.00;;;;;13.98;69.89;96347.84;5077971;28;9312;-67
2023/01/04 08:11:18;;;;;;;;;63.75;54.50;;;;;14.19;70.39;96345.84;5077689;28;9007;-68
2023/01/04 08:13:44;;;;;;;;;63.50;55.00;;;;;14.36;70.12;96345.34;5077150;28;9755;-67
2023/01/04 08:16:20;;;;;;;;;67.25;57.25;;;;;14.54;70.75;96356.59;5076400;28;8841;-67
2023/01/04 08:18:52;;;;;;;;;69.25;58.75;;;;;14.71;70.89;96349.84;5068786;28;8910;-67
2023/01/04 08:21:19;;;;;;;;;65.00;55.25;;;;;14.83;70.35;96359.81;5076115;28;8883;-67
2023/01/04 08:23:46;;;;;;;;;62.25;54.25;;;;;14.96;71.33;96349.41;5080107;28;9632;-67
2023/01/04 08:26:15;;;;;;;;;65.00;56.00;;;;;15.07;70.70;96355.84;5075371;28;8833;-67
2023/01/04 08:28:42;;;;;;;;;65.00;56.00;;;;;15.19;71.06;96357.56;5072998;28;8887;-68
2023/01/04 08:31:13;;;;;;;;;68.00;58.75;;;;;15.29;71.03;96352.56;5075530;28;8833;-67
2023/01/04 08:33:41;;;;;;;;;63.75;55.00;;;;;15.37;70.94;96357.00;5074693;28;8973;-66
2023/01/04 08:36:26;;;;;;;;;72.00;60.25;;;;;15.46;71.16;96351.22;5079621;28;8975;-66
2023/01/04 08:38:59;;;;;;;;;72.00;61.25;;;;;15.55;70.61;96360.00;5076515;28;8845;-66
2023/01/04 08:41:33;;;;;;;;;65.00;54.50;;;;;15.63;71.31;96355.34;5074432;28;9375;-67
2023/01/04 08:44:22;;;;;;;;;66.75;56.25;;;;;15.69;71.36;96360.16;5072605;28;8879;-68
2023/01/04 08:46:50;;;;;;;;;63.50;54.00;;;;;15.75;71.37;96360.59;5069546;28;8862;-67
2023/01/04 08:49:18;;;;;;;;;65.25;56.00;;;;;15.78;71.43;96354.34;5068435;28;9605;-67
2023/01/04 08:51:45;;;;;;;;;64.00;55.25;;;;;15.85;71.44;96356.41;5069978;28;8871;-67
2023/01/04 08:54:12;;;;;;;;;65.25;56.50;;;;;15.90;71.21;96356.09;5074089;28;8833;-67
2023/01/04 08:56:40;;;;;;;;;62.25;54.25;;;;;15.95;70.86;96354.97;5072496;28;9357;-67
2023/01/04 08:59:08;;;;;;;;;65.25;55.00;;;;;15.98;71.23;96363.25;5068892;28;8858;-68
2023/01/04 09:01:35;;;;;;;;;63.00;54.00;;;;;16.03;70.83;96356.63;5070544;28;8863;-68
2023/01/04 09:04:02;;;;;;;;;61.25;53.25;;;;;16.07;71.58;96362.16;5066912;28;8864;-67
2023/01/04 09:06:30;;;;;;;;;63.00;54.25;;;;;16.11;70.70;96360.22;5071913;28;8880;-68
2023/01/04 09:08:57;;;;;;;;;70.75;59.75;;;;;15.93;66.79;96368.28;5075802;28;9630;-68
2023/01/04 09:11:25;;;;;;;;;71.25;60.25;;;;;15.21;57.28;96363.47;5074214;28;8877;-68
2023/01/04 09:13:57;;;;;;;;;69.50;58.25;;;;;14.23;52.89;96361.19;5074348;28;8956;-69
2023/01/04 09:16:33;;;;;;;;;68.00;57.00;;;;;14.06;55.70;96367.94;5072021;28;8899;-68
2023/01/04 09:19:01;;;;;;;;;65.00;56.00;;;;;13.67;57.82;96368.00;5071612;28;8848;-68
2023/01/04 09:21:28;;;;;;;;;68.00;58.00;;;;;13.69;63.90;96373.13;5070639;28;8922;-67
2023/01/04 09:23:56;;;;;;;;;67.25;57.00;;;;;13.74;66.87;96372.81;5075178;28;8922;-67
2023/01/04 09:26:24;;;;;;;;;68.25;58.25;;;;;13.82;67.29;96369.84;5077238;28;8810;-66
2023/01/04 09:28:52;;;;;;;;;68.25;57.00;;;;;13.94;68.22;96379.09;5069660;28;8908;-67
2023/01/04 09:31:22;;;;;;;;;67.25;56.75;;;;;14.16;67.24;96379.47;5073250;28;8976;-66
2023/01/04 09:33:49;;;;;;;;;69.00;58.00;;;;;14.36;67.17;96377.47;5068235;28;8853;-66
2023/01/04 09:36:36;;;;;;;;;69.00;58.00;;;;;14.53;68.30;96382.44;5074120;28;8857;-66
2023/01/04 09:39:04;;;;;;;;;66.50;57.00;;;;;14.61;69.92;96389.63;5079276;28;8856;-67
2023/01/04 09:41:37;;;;;;;;;64.50;55.50;;;;;14.73;69.47;96387.91;5073070;28;8847;-70
2023/01/04 09:44:07;;;;;;;;;67.25;57.50;;;;;14.88;68.84;96391.66;5085467;28;8857;-70
2023/01/04 09:47:00;;;;;;;;;66.25;55.75;;;;;14.93;68.90;96393.31;5083288;28;8990;-70
2023/01/04 09:49:34;;;;;;;;;67.25;55.75;;;;;15.02;70.32;96391.88;5088544;28;8957;-78
2023/01/04 09:52:10;;;;;;;;;67.25;56.00;;;;;15.16;70.50;96390.47;5081027;28;8833;-78
2023/01/04 09:55:08;;;;;;;;;65.00;55.50;;;;;15.29;71.50;96394.59;5079350;28;8840;-79
2023/01/04 09:58:18;;;;;;;;;62.00;54.00;;;;;15.41;70.52;96403.75;5072318;28;8925;-78
2023/01/04 10:01:03;;;;;;;;;63.50;55.00;;;;;15.51;70.55;96408.59;5064077;28;8952;-80
2023/01/04 10:03:37;;;;;;;;;63.00;54.25;;;;;15.60;70.69;96411.09;5081878;28;8829;-78
2023/01/04 10:06:09;;;;;;;;;62.00;53.75;;;;;15.64;71.10;96407.22;5091265;28;8924;-77
2023/01/04 10:08:35;;;;;;;;;64.50;55.75;;;;;15.72;70.88;96407.31;5099070;27;8848;-77
2023/01/04 10:11:08;;;;;;;;;62.50;54.00;;;;;15.79;69.86;96402.66;5077309;28;8839;-78
2023/01/04 10:14:04;;;;;;;;;64.00;55.00;;;;;15.85;70.15;96403.97;5082932;28;8860;-80
2023/01/04 10:16:40;;;;;;;;;63.00;54.00;;;;;15.90;70.03;96413.84;5083872;28;8863;-81
2023/01/04 10:19:33;;;;;;;;;63.25;54.75;;;;;15.94;70.38;96406.41;5092103;28;8837;-74
2023/01/04 10:22:32;;;;;;;;;66.00;56.50;;;;;16.00;70.00;96410.41;5083121;28;8852;-73
2023/01/04 10:25:47;;;;;;;;;66.25;55.25;;;;;16.08;68.70;96410.50;5085505;28;9621;-77
2023/01/04 10:28:17;;;;;;;;;63.00;54.50;;;;;16.11;69.68;96409.72;5042307;28;9635;-74
2023/01/04 10:31:07;;;;;;;;;58.75;51.75;;;;;16.15;69.75;96411.34;5040682;28;12344;-72
2023/01/04 10:34:02;;;;;;;;;65.25;55.00;;;;;16.19;69.46;96405.09;5042383;28;8840;-73
2023/01/04 10:36:30;;;;;;;;;62.00;54.00;;;;;16.21;69.97;96402.78;5042075;28;8889;-74
2023/01/04 10:39:10;;;;;;;;;62.25;54.00;;;;;16.23;69.79;96400.41;5043018;28;10846;-73
2023/01/04 10:42:09;;;;;;;;;63.75;55.25;;;;;16.27;69.75;96393.78;5041877;28;9953;-73
2023/01/04 10:45:07;;;;;;;;;65.00;55.00;;;;;16.17;70.88;96397.22;5038421;28;8986;-67
2023/01/04 10:47:58;;;;;;;;;65.00;56.00;;;;;16.29;69.87;96393.41;5034905;28;9671;-65
2023/01/04 10:50:54;;;;;;;;;65.75;56.25;;;;;16.34;69.18;96393.06;5030486;28;8852;-66
2023/01/04 10:53:31;;;;;;;;;65.00;55.75;;;;;16.36;69.20;96387.97;4984583;28;8874;-66
2023/01/04 10:56:08;;;;;;;;;60.50;52.75;;;;;16.39;68.76;96389.19;4986880;28;8848;-66
2023/01/04 10:59:12;;;;;;;;;65.25;56.50;;;;;16.42;68.98;96391.19;4987671;28;8810;-66
2023/01/04 11:01:43;;;;;;;;;61.00;53.75;;;;;16.43;69.08;96385.28;4993895;28;10334;-66
2023/01/04 11:04:14;;;;;;;;;62.25;52.25;;;;;16.45;69.19;96382.94;5001614;28;8833;-66
2023/01/04 11:07:01;;;;;;;;;66.00;56.00;;;;;16.48;69.20;96378.66;5043863;28;9795;-67
2023/01/04 11:09:36;;;;;;;;;61.00;52.25;;;;;16.52;68.94;96384.19;5044051;28;9527;-67
2023/01/04 11:12:10;;;;;;;;;64.00;55.25;;;;;16.53;68.82;96381.03;5046042;28;8853;-67
2023/01/04 11:14:37;;;;;;;;;65.00;54.75;;;;;16.56;69.30;96388.53;5038775;28;8823;-65
2023/01/04 11:17:08;;;;;;;;;62.75;54.00;;;;;16.58;68.99;96377.13;5038024;28;9725;-65
2023/01/04 11:19:36;;;;;;;;;62.75;54.75;;;;;16.60;69.30;96374.81;5038766;28;8986;-66
2023/01/04 11:22:13;;;;;;;;;61.00;53.25;;;;;16.61;69.05;96370.88;5036978;28;8818;-67
2023/01/04 11:24:43;;;;;;;;;62.25;54.00;;;;;16.62;70.02;96367.75;5040374;28;11019;-67
2023/01/04 11:27:39;;;;;;;;;63.75;54.50;;;;;16.59;69.60;96368.50;5038870;28;8934;-64
2023/01/04 11:30:34;;;;;;;;;62.25;53.00;;;;;16.63;69.45;96363.03;5054355;28;8910;-65
2023/01/04 11:33:09;;;;;;;;;60.25;52.75;;;;;16.64;69.22;96362.66;5074007;28;9383;-65
2023/01/04 11:35:47;;;;;;;;;61.00;52.75;;;;;16.66;69.24;96356.75;5082782;28;8825;-64
2023/01/04 11:38:19;;;;;;;;;63.00;54.50;;;;;16.68;69.18;96350.84;5074581;28;8862;-64
2023/01/04 11:41:01;;;;;;;;;64.00;55.25;;;;;16.69;69.20;96347.75;5091516;28;8829;-63
2023/01/04 11:43:31;;;;;;;;;62.00;53.25;;;;;16.70;69.35;96351.28;5075041;28;9832;-63
2023/01/04 11:46:05;;;;;;;;;64.25;54.25;;;;;16.58;66.52;96341.34;5081912;28;8822;-66
2023/01/04 11:48:38;;;;;;;;;64.00;54.50;;;;;16.34;62.81;96332.53;5077919;28;9641;-69
2023/01/04 11:51:32;;;;;;;;;65.50;56.00;;;;;16.08;61.33;96337.00;5075413;28;9555;-68
2023/01/04 11:54:14;;;;;;;;;64.00;56.00;;;;;15.69;60.57;96340.13;5080143;28;9870;-67
2023/01/04 11:57:09;;;;;;;;;63.75;55.00;;;;;15.38;60.21;96326.41;5073055;28;9817;-67
2023/01/04 11:59:38;;;;;;;;;66.25;55.50;;;;;15.14;61.49;96330.41;5076848;28;9702;-69
2023/01/04 12:02:19;;;;;;;;;65.00;54.00;;;;;14.92;62.04;96323.84;5075477;28;9690;-65
2023/01/04 12:05:32;;;;;;;;;65.00;55.00;;;;;14.91;65.71;96323.06;5073132;28;8966;-69
2023/01/04 12:07:59;;;;;;;;;62.00;54.00;;;;;15.02;67.24;96325.16;5063498;28;8871;-70
2023/01/04 12:10:27;;;;;;;;;60.25;52.50;;;;;15.16;68.18;96317.13;5066365;28;8847;-68
2023/01/04 12:12:58;;;;;;;;;65.00;56.25;;;;;15.30;69.05;96310.19;5064640;28;8987;-69
2023/01/04 12:15:35;;;;;;;;;62.00;54.00;;;;;15.39;69.02;96305.22;5062653;28;8847;-69
2023/01/04 12:18:24;;;;;;;;;62.00;53.25;;;;;15.50;69.61;96303.38;5063813;28;8837;-68
2023/01/04 12:20:51;;;;;;;;;59.00;52.00;;;;;15.59;70.04;96303.06;5061534;28;8841;-69
2023/01/04 12:23:19;;;;;;;;;66.25;57.25;;;;;15.68;70.32;96298.06;5074261;28;8841;-68
2023/01/04 12:25:51;;;;;;;;;65.00;55.50;;;;;15.76;70.59;96298.94;5071348;28;10173;-66
2023/01/04 12:28:28;;;;;;;;;61.50;53.25;;;;;15.82;70.33;96294.69;5063960;28;8872;-67
2023/01/04 12:30:55;;;;;;;;;61.00;53.00;;;;;15.87;70.46;96285.34;5074576;28;8853;-66
2023/01/04 12:33:31;;;;;;;;;60.25;52.00;;;;;15.93;70.34;96281.06;5076489;28;8837;-66
2023/01/04 12:35:57;;;;;;;;;65.25;56.00;;;;;15.98;69.48;96282.69;5076624;28;8845;-67
2023/01/04 12:38:58;;;;;;;;;69.00;59.00;;;;;15.95;69.17;96275.97;5078287;28;8845;-66